Loxahatchee Groves, FL

2:38 AM EST on February 28, 2015 (GMT -0500)
Fort Lauderdale Executive | Change Station
CLOSE
Current Station
Airport
Location: Fort Lauderdale,
Elevation: 13 ft
Nearby Weather Stations

Elev 13 ft 26.20 °N, 80.18 °W | Updated 15 minutes ago

Overcast
Overcast
74 °F
Feels Like 74 °F
N
9
Wind Variable Wind from ENE

Today
High -- | Low -- °F
--% Chance of Precip.
Yesterday
High -- | Low -- °F
Precip. -- in
6:46 AM 6:21 PM
Waxing Gibbous, 75% visible
Pressure 30.15 in
Visibility 10.0 miles
Clouds Mostly Cloudy 1300 ft
Mostly Cloudy 1800 ft
Mostly Cloudy 2400 ft
Dew Point 71 °F
Humidity 91%
Rainfall 0.00 in
Snow Depth Not available.
UV 0 out of 12
Pollen 9.30 out of 12
Air Quality Not available.
Flu Activity Not available.
SPECI KFXE 280723Z AUTO 07008KT 10SM BKN013 BKN018 BKN024 23/22 A3015 RMK AO2 RAE0658 P0000 T02330217 TSNO

More Conditions Fewer Conditions

Pressure 30.15 in
Visibility 10.0 miles
Clouds Mostly Cloudy 1300 ft
Mostly Cloudy 1800 ft
Mostly Cloudy 2400 ft
Dew Point 71 °F
Humidity 91%
Rainfall 0.00 in
Snow Depth Not available.
UV 0 out of 12
Pollen 9.30 out of 12
Air Quality Not available.
Flu Activity Not available.
SPECI KFXE 280723Z AUTO 07008KT 10SM BKN013 BKN018 BKN024 23/22 A3015 RMK AO2 RAE0658 P0000 T02330217 TSNO

More Conditions Fewer Conditions

Nowcast | as of 1:06 am EST on February 28, 2015

Through this morning...isolated showers over the near-shore Atlantic waters of Miami-Dade County will conitnue to move from the east southeast around 5 to 10 mph and possibily into the coastal areas of Miami-Dade County. Any showers that do move onshore will be capable of producing wind gusts up to 20 mph and rainfall amounts up to tenth of an inch. Mariners can also expect higher seas in and near the showers. The is a slight risk of waterspouts for the Atlantic waters this morning.

×

10-Day Weather Forecast

Almanac

Astronomy

Feb. 28, 2015 Rise Set
Actual Time
Civil Twilight
Nautical Twilight
Astronomical Twilight
Moon
Length of Visible Light
Length of Day
Tomorrow will be .
, % of the Moon is Illuminated

Today's Extremes

State Highs State Lows

Community

WunderPhotos

Upload Photos

1,800,981 photos uploaded!

WunderBlogs® & News

Nearby

Air Quality

  Air Quality AQ Index Pollutant
Not available.

Snow Depth

Station Depth Elevation

Earthquake Activity

City Distance Mag. Time & Date
Minimum magnitude displayed is 2.5.

Coastal Water Temperatures

Place Temperature

Nearby Weather Stations